Time;durP1;ratioP1;P1;durP2;ratioP2;P2;SDS_P1;SDS_P2;PMS_P1;PMS_P2;Temp;Humidity;BMP_temperature;BMP_pressure;BME280_temperature;BME280_humidity;BME280_pressure;Samples;Min_cycle;Max_cycle;Signal;HPM_P1;HPM_P2
2022/08/28 00:00:18;;;;;;;5.95;3.28;;;13.90;99.90;;;;;;5077906;28;20147;-90
2022/08/28 00:02:45;;;;;;;4.03;2.42;;;13.90;99.90;;;;;;5075424;28;20036;-91
2022/08/28 00:05:12;;;;;;;4.30;2.65;;;13.90;99.90;;;;;;5073719;28;20025;-91
2022/08/28 00:07:38;;;;;;;5.43;3.00;;;13.90;99.90;;;;;;5073102;28;20032;-94
2022/08/28 00:10:06;;;;;;;7.93;2.85;;;13.80;99.90;;;;;;5073370;28;20032;-93
2022/08/28 00:12:33;;;;;;;7.22;2.80;;;13.80;99.90;;;;;;5073152;28;20127;-92
2022/08/28 00:14:59;;;;;;;5.65;2.55;;;13.80;99.90;;;;;;5075806;28;20054;-92
2022/08/28 00:17:25;;;;;;;4.82;2.67;;;13.80;99.90;;;;;;5080155;28;20056;-93
2022/08/28 00:19:50;;;;;;;5.82;2.63;;;13.70;99.90;;;;;;5076649;28;20024;-92
2022/08/28 00:22:16;;;;;;;3.65;2.47;;;13.70;99.90;;;;;;5072730;28;20063;-92
2022/08/28 00:24:43;;;;;;;5.35;2.50;;;13.70;99.90;;;;;;5073358;28;20024;-92
2022/08/28 00:29:53;;;;;;;6.85;4.07;;;13.60;99.90;;;;;;5074648;28;20078;-92
2022/08/28 00:32:22;;;;;;;5.25;2.55;;;13.50;99.90;;;;;;5073230;28;20044;-92
2022/08/28 00:34:48;;;;;;;7.10;2.70;;;13.50;99.90;;;;;;5075110;28;20051;-91
2022/08/28 00:37:14;;;;;;;5.57;3.00;;;13.50;99.90;;;;;;5077233;28;20051;-93
2022/08/28 00:39:40;;;;;;;5.53;2.30;;;13.40;99.90;;;;;;5080123;28;20074;-93
2022/08/28 00:42:06;;;;;;;5.25;2.97;;;13.40;99.90;;;;;;5082140;28;20036;-91
2022/08/28 00:44:31;;;;;;;5.90;2.80;;;13.30;99.90;;;;;;5077672;28;20024;-93
2022/08/28 00:46:58;;;;;;;5.20;3.10;;;13.30;99.90;;;;;;5077420;28;20071;-94
2022/08/28 00:49:41;;;;;;;6.78;2.60;;;13.30;99.90;;;;;;5077354;28;20047;-93
2022/08/28 00:52:10;;;;;;;5.88;2.58;;;13.20;99.90;;;;;;5077871;28;20037;-92
2022/08/28 00:54:54;;;;;;;6.35;2.90;;;13.20;99.90;;;;;;5085957;28;20011;-92
2022/08/28 00:57:26;;;;;;;4.75;2.83;;;13.10;99.90;;;;;;5093576;28;20028;-92
2022/08/28 00:59:52;;;;;;;6.28;3.17;;;13.10;99.90;;;;;;5086580;28;20033;-93
2022/08/28 01:02:17;;;;;;;7.20;3.40;;;13.10;99.90;;;;;;5088084;28;20210;-93
2022/08/28 01:04:44;;;;;;;4.78;2.90;;;13.00;99.90;;;;;;5092980;28;20028;-92
2022/08/28 01:07:13;;;;;;;3.50;2.75;;;13.00;99.90;;;;;;5088123;28;20020;-93
2022/08/28 01:09:45;;;;;;;8.43;3.10;;;13.00;99.90;;;;;;5074768;28;20029;-93
2022/08/28 01:12:15;;;;;;;5.88;2.97;;;13.00;99.90;;;;;;5074830;28;20393;-93
2022/08/28 01:14:44;;;;;;;5.35;2.72;;;13.00;99.90;;;;;;5074687;28;20484;-93
2022/08/28 01:17:12;;;;;;;6.10;2.90;;;12.90;99.90;;;;;;5075006;28;20081;-92
2022/08/28 01:19:57;;;;;;;7.82;3.67;;;12.90;99.90;;;;;;5074157;28;20028;-92
2022/08/28 01:23:00;;;;;;;7.55;3.13;;;12.90;99.90;;;;;;5074034;28;20031;-92
2022/08/28 01:25:31;;;;;;;6.30;3.35;;;12.80;99.90;;;;;;5074843;28;20035;-93
2022/08/28 01:27:58;;;;;;;8.07;3.20;;;12.80;99.90;;;;;;5074548;28;20044;-93
2022/08/28 01:30:24;;;;;;;5.15;2.47;;;12.70;99.90;;;;;;5073316;28;20090;-92
2022/08/28 01:32:55;;;;;;;6.28;3.20;;;12.70;99.90;;;;;;5074155;28;20059;-92
2022/08/28 01:35:23;;;;;;;;;;;12.70;99.90;;;;;;5075394;28;20158;-92
2022/08/28 01:37:48;;;;;;;8.10;3.53;;;12.60;99.90;;;;;;5075908;28;20403;-92
2022/08/28 01:40:21;;;;;;;5.07;2.83;;;12.60;99.90;;;;;;5083298;28;20028;-92
2022/08/28 01:42:47;;;;;;;4.43;2.88;;;12.60;99.90;;;;;;5076808;28;20108;-92
2022/08/28 01:45:15;;;;;;;6.28;3.10;;;12.60;99.90;;;;;;5075945;28;20032;-91
2022/08/28 01:47:43;;;;;;;5.13;3.13;;;12.50;99.90;;;;;;5074894;28;20048;-93
2022/08/28 01:50:10;;;;;;;3.92;2.70;;;12.50;99.90;;;;;;5074379;28;20017;-91
2022/08/28 01:52:37;;;;;;;4.78;2.70;;;12.50;99.90;;;;;;5075829;28;20036;-93
2022/08/28 01:55:05;;;;;;;7.43;2.95;;;12.50;99.90;;;;;;5075870;28;20082;-93
2022/08/28 01:57:31;;;;;;;9.20;3.00;;;12.50;99.90;;;;;;5075829;28;20112;-93
2022/08/28 01:59:57;;;;;;;5.43;3.10;;;12.40;99.90;;;;;;5075846;28;20486;-95
2022/08/28 02:02:23;;;;;;;4.88;3.00;;;12.40;99.90;;;;;;5086571;28;20025;-93
2022/08/28 02:04:49;;;;;;;6.63;2.90;;;12.40;99.90;;;;;;5089665;28;20470;-93
2022/08/28 02:07:15;;;;;;;5.07;2.80;;;12.40;99.90;;;;;;5083280;28;20037;-94
2022/08/28 02:09:42;;;;;;;3.50;2.95;;;12.30;99.90;;;;;;5082793;28;20035;-93
2022/08/28 02:12:08;;;;;;;5.32;2.90;;;12.30;99.90;;;;;;5096776;28;20032;-92
2022/08/28 02:14:34;;;;;;;5.45;2.60;;;12.30;99.90;;;;;;5096891;28;20031;-91
2022/08/28 02:17:00;;;;;;;5.47;3.17;;;12.30;99.90;;;;;;5088095;28;20271;-94
2022/08/28 02:19:26;;;;;;;5.22;3.30;;;12.30;99.90;;;;;;5077037;28;20028;-92
2022/08/28 02:21:51;;;;;;;6.75;3.00;;;12.30;99.90;;;;;;5075408;28;20027;-93
2022/08/28 02:24:17;;;;;;;6.10;3.28;;;12.30;99.90;;;;;;5076835;28;20078;-93
2022/08/28 02:26:43;;;;;;;5.90;3.00;;;12.20;99.90;;;;;;5075095;28;20025;-92
2022/08/28 02:29:10;;;;;;;5.25;2.97;;;12.20;99.90;;;;;;5074911;28;20020;-94
2022/08/28 02:31:36;;;;;;;6.20;3.08;;;12.20;99.90;;;;;;5074584;28;20101;-94
2022/08/28 02:34:02;;;;;;;8.23;2.97;;;12.20;99.90;;;;;;5074030;28;20025;-94
2022/08/28 02:36:28;;;;;;;4.85;2.63;;;12.20;99.90;;;;;;5073616;28;20040;-93
2022/08/28 02:38:54;;;;;;;6.25;3.30;;;12.10;99.90;;;;;;5073612;28;20036;-92
2022/08/28 02:41:20;;;;;;;3.70;2.70;;;12.10;99.90;;;;;;5073795;28;20443;-93
2022/08/28 02:43:45;;;;;;;5.20;3.00;;;12.10;99.90;;;;;;5074238;28;20124;-93
2022/08/28 02:46:12;;;;;;;6.03;3.17;;;12.00;99.90;;;;;;5073951;28;20016;-93
2022/08/28 02:48:39;;;;;;;4.38;2.60;;;12.00;99.90;;;;;;5073499;28;20509;-92
2022/08/28 02:51:10;;;;;;;3.88;2.72;;;12.00;99.90;;;;;;5072597;28;20037;-92
2022/08/28 02:53:36;;;;;;;6.53;3.17;;;12.00;99.90;;;;;;5073037;28;20036;-92
2022/08/28 02:56:03;;;;;;;4.45;2.70;;;11.90;99.90;;;;;;5073714;28;20031;-92
2022/08/28 02:58:31;;;;;;;4.30;2.90;;;11.90;99.90;;;;;;5073994;28;20043;-92
2022/08/28 03:00:59;;;;;;;6.40;3.15;;;12.00;99.90;;;;;;5083785;28;20482;-94
2022/08/28 03:03:26;;;;;;;7.70;3.53;;;12.00;99.90;;;;;;5077969;28;20033;-92
2022/08/28 03:05:51;;;;;;;4.63;2.60;;;12.00;99.90;;;;;;5074060;28;20025;-93
2022/08/28 03:08:17;;;;;;;5.57;2.70;;;12.10;99.90;;;;;;5073866;28;20016;-92
2022/08/28 03:10:43;;;;;;;7.68;2.78;;;12.00;99.90;;;;;;5073699;28;20473;-92
2022/08/28 03:13:10;;;;;;;7.18;2.80;;;12.00;99.90;;;;;;5073906;28;20075;-92
2022/08/28 03:15:37;;;;;;;6.35;3.15;;;12.00;99.90;;;;;;5073809;28;20107;-92
2022/08/28 03:18:03;;;;;;;7.85;3.15;;;11.90;99.90;;;;;;5073350;28;20020;-92
2022/08/28 03:20:28;;;;;;;4.70;2.80;;;11.80;99.90;;;;;;5073273;28;20024;-93
2022/08/28 03:25:38;;;;;;;5.43;2.92;;;11.70;99.90;;;;;;5074609;28;20032;-92
2022/08/28 03:28:04;;;;;;;6.43;2.78;;;11.70;99.90;;;;;;5072600;28;20028;-92
2022/08/28 03:30:30;;;;;;;7.30;3.10;;;11.60;99.90;;;;;;5072690;28;20044;-92
2022/08/28 03:32:56;;;;;;;5.10;2.70;;;11.60;99.90;;;;;;5072500;28;20104;-93
2022/08/28 03:35:22;;;;;;;5.47;3.05;;;11.60;99.90;;;;;;5072794;28;20070;-93
2022/08/28 03:37:48;;;;;;;5.53;3.58;;;11.60;99.90;;;;;;5072451;28;20025;-93
2022/08/28 03:40:14;;;;;;;6.22;3.20;;;11.60;99.90;;;;;;5073017;28;20621;-92
2022/08/28 03:42:39;;;;;;;6.57;2.90;;;11.50;99.90;;;;;;5073561;28;20055;-92
2022/08/28 03:45:08;;;;;;;6.60;3.70;;;11.50;99.90;;;;;;5074198;28;20028;-92
2022/08/28 03:47:39;;;;;;;6.53;3.50;;;11.50;99.90;;;;;;5072017;28;20123;-92
2022/08/28 03:50:06;;;;;;;8.10;3.40;;;11.50;99.90;;;;;;5072154;28;20089;-91
2022/08/28 03:52:32;;;;;;;4.50;3.38;;;11.50;99.90;;;;;;5072113;28;20060;-92
2022/08/28 03:54:58;;;;;;;4.90;3.22;;;11.50;99.90;;;;;;5072674;28;20032;-92
2022/08/28 03:57:24;;;;;;;6.18;3.47;;;11.40;99.90;;;;;;5072698;28;20025;-92
2022/08/28 03:59:51;;;;;;;7.38;3.50;;;11.30;99.90;;;;;;5072561;28;20024;-92
2022/08/28 04:02:19;;;;;;;4.70;3.28;;;11.30;99.90;;;;;;5072515;28;20025;-91
2022/08/28 04:04:47;;;;;;;5.15;3.15;;;11.30;99.90;;;;;;5072975;28;20032;-91
2022/08/28 04:07:13;;;;;;;5.72;3.70;;;11.30;99.90;;;;;;5087564;28;20511;-91
2022/08/28 04:09:38;;;;;;;5.53;3.20;;;11.30;99.90;;;;;;5089529;28;20029;-91
2022/08/28 04:12:05;;;;;;;5.20;3.00;;;11.20;99.90;;;;;;5087501;28;20081;-92
2022/08/28 04:14:31;;;;;;;8.05;3.38;;;11.20;99.90;;;;;;5083359;28;20025;-92
2022/08/28 04:16:57;;;;;;;6.50;3.58;;;11.20;99.90;;;;;;5076615;28;20039;-91
2022/08/28 04:19:22;;;;;;;3.72;2.80;;;11.10;99.90;;;;;;5076716;28;20024;-91
2022/08/28 04:21:48;;;;;;;5.63;3.58;;;11.10;99.90;;;;;;5083899;28;20036;-92
2022/08/28 04:24:14;;;;;;;6.93;3.42;;;11.10;99.90;;;;;;5086487;28;20112;-91
2022/08/28 04:26:40;;;;;;;4.00;2.95;;;11.00;99.90;;;;;;5078579;28;20032;-92
2022/08/28 04:29:06;;;;;;;4.60;2.80;;;11.00;99.90;;;;;;5076390;28;20135;-93
2022/08/28 04:31:34;;;;;;;4.82;3.10;;;11.00;99.90;;;;;;5075638;28;20052;-92
2022/08/28 04:34:05;;;;;;;7.55;4.50;;;11.00;99.90;;;;;;5076346;28;20028;-92
2022/08/28 04:36:34;;;;;;;5.20;3.35;;;10.90;99.90;;;;;;5077279;28;20039;-91
2022/08/28 04:39:01;;;;;;;5.57;3.03;;;10.90;99.90;;;;;;5075768;28;20028;-93
2022/08/28 04:45:05;;;;;;;5.03;3.00;;;10.80;99.90;;;;;;5091858;22;20075;-91
2022/08/28 04:47:35;;;;;;;7.90;3.00;;;10.80;99.90;;;;;;5074928;28;20036;-92
2022/08/28 04:50:02;;;;;;;;;;;10.80;99.90;;;;;;5076732;28;20025;-91
2022/08/28 04:52:27;;;;;;;5.95;3.38;;;10.80;99.90;;;;;;5075072;28;19924;-92
2022/08/28 04:54:53;;;;;;;3.17;2.72;;;10.80;99.90;;;;;;5074867;28;20020;-90
2022/08/28 04:57:19;;;;;;;5.22;2.95;;;10.80;99.90;;;;;;5074811;28;20186;-90
2022/08/28 04:59:44;;;;;;;6.95;3.10;;;10.80;99.90;;;;;;5074337;28;20028;-91
2022/08/28 05:02:10;;;;;;;4.82;2.92;;;10.80;99.90;;;;;;5074852;28;20024;-90
2022/08/28 05:04:36;;;;;;;6.50;3.53;;;10.80;99.90;;;;;;5075362;28;20384;-90
2022/08/28 05:07:02;;;;;;;4.15;3.03;;;10.70;99.90;;;;;;5074936;28;20033;-91
2022/08/28 05:09:30;;;;;;;4.15;2.63;;;10.70;99.90;;;;;;5075154;28;20041;-90
2022/08/28 05:12:00;;;;;;;9.90;2.88;;;10.60;99.90;;;;;;5074951;28;20088;-91
2022/08/28 05:14:26;;;;;;;4.78;2.75;;;10.60;99.90;;;;;;5074244;28;20063;-91
2022/08/28 05:16:52;;;;;;;3.50;2.50;;;10.60;99.90;;;;;;5075522;28;20024;-90
2022/08/28 05:19:19;;;;;;;7.68;2.70;;;10.60;99.90;;;;;;5076567;28;20021;-91
2022/08/28 05:21:45;;;;;;;4.32;3.10;;;10.60;99.90;;;;;;5082000;28;20032;-91
2022/08/28 05:24:12;;;;;;;3.58;3.13;;;10.60;99.90;;;;;;5081282;28;20039;-91
2022/08/28 05:26:38;;;;;;;4.38;3.58;;;10.60;99.90;;;;;;5077327;28;20025;-91
2022/08/28 05:29:06;;;;;;;4.50;3.75;;;10.60;99.90;;;;;;5076865;28;20021;-92
2022/08/28 05:31:33;;;;;;;4.13;3.25;;;10.60;99.90;;;;;;5076228;28;20035;-91
2022/08/28 05:34:01;;;;;;;4.53;3.50;;;10.60;99.90;;;;;;5076522;28;20481;-91
2022/08/28 05:36:30;;;;;;;5.00;3.70;;;10.60;99.90;;;;;;5075615;28;20029;-91
2022/08/28 05:38:58;;;;;;;5.68;4.45;;;10.60;99.90;;;;;;5077084;28;20024;-91
2022/08/28 05:41:25;;;;;;;6.65;4.47;;;10.60;99.90;;;;;;5081234;28;20111;-92
2022/08/28 05:43:52;;;;;;;5.10;4.40;;;10.60;99.90;;;;;;5087700;28;20060;-90
2022/08/28 05:46:19;;;;;;;5.68;4.68;;;10.60;99.90;;;;;;5077714;28;20059;-90
2022/08/28 05:48:48;;;;;;;5.57;4.22;;;10.60;99.90;;;;;;5076260;28;20052;-91
2022/08/28 05:51:18;;;;;;;6.47;4.43;;;10.60;99.90;;;;;;5073988;28;20401;-91
2022/08/28 05:53:45;;;;;;;6.00;4.10;;;10.60;99.90;;;;;;5074526;28;20025;-92
2022/08/28 05:56:13;;;;;;;6.82;4.10;;;10.60;99.90;;;;;;5074791;28;20055;-92
2022/08/28 05:58:39;;;;;;;4.57;3.53;;;10.60;99.90;;;;;;5073778;28;20036;-91
2022/08/28 06:01:08;;;;;;;4.47;3.53;;;10.60;99.90;;;;;;5074001;28;20024;-92
2022/08/28 06:03:34;;;;;;;4.70;3.70;;;10.60;99.90;;;;;;5073707;28;20055;-89
2022/08/28 06:06:00;;;;;;;4.07;3.50;;;10.60;99.90;;;;;;5074418;28;20024;-94
2022/08/28 06:08:27;;;;;;;5.80;3.95;;;10.60;99.90;;;;;;5073650;28;20032;-92
2022/08/28 06:10:53;;;;;;;7.00;3.55;;;10.70;99.90;;;;;;5073492;28;20481;-93
2022/08/28 06:13:19;;;;;;;4.75;3.10;;;10.70;99.90;;;;;;5075170;28;20029;-91
2022/08/28 06:15:45;;;;;;;5.82;3.60;;;10.70;99.90;;;;;;5080763;28;20382;-91
2022/08/28 06:18:13;;;;;;;4.97;3.55;;;10.70;99.90;;;;;;5073401;28;20044;-91
2022/08/28 06:20:41;;;;;;;6.15;3.38;;;10.80;99.90;;;;;;5073050;28;20025;-91
2022/08/28 06:23:11;;;;;;;5.85;3.63;;;10.80;99.90;;;;;;5073069;28;20017;-92
2022/08/28 06:25:44;;;;;;;5.68;3.35;;;10.80;99.90;;;;;;5054460;28;20025;-91
2022/08/28 06:28:10;;;;;;;6.63;3.33;;;10.90;99.90;;;;;;5054318;28;20029;-91
2022/08/28 06:30:37;;;;;;;4.45;3.42;;;10.90;99.90;;;;;;5057880;28;20029;-91
2022/08/28 06:33:04;;;;;;;4.90;3.92;;;10.90;99.90;;;;;;5074025;28;20176;-91
2022/08/28 06:35:30;;;;;;;8.57;3.72;;;10.90;99.90;;;;;;5082189;28;20084;-91
2022/08/28 06:38:01;;;;;;;5.15;3.40;;;10.90;99.90;;;;;;5085436;28;20028;-92
2022/08/28 06:40:27;;;;;;;4.88;3.55;;;10.90;99.90;;;;;;5086403;28;20020;-91
2022/08/28 06:42:53;;;;;;;4.80;3.30;;;10.90;99.90;;;;;;5095487;28;20054;-92
2022/08/28 06:45:19;;;;;;;4.95;3.05;;;11.00;99.90;;;;;;5094867;28;20032;-92
2022/08/28 06:47:46;;;;;;;4.55;3.60;;;11.00;99.90;;;;;;5081211;28;20483;-91
2022/08/28 06:50:12;;;;;;;4.18;3.35;;;11.10;99.90;;;;;;5075794;28;20089;-91
2022/08/28 06:52:39;;;;;;;4.88;3.22;;;11.10;99.90;;;;;;5075112;28;20044;-92
2022/08/28 06:55:05;;;;;;;4.63;3.45;;;11.20;99.90;;;;;;5075865;28;20070;-92
2022/08/28 06:57:31;;;;;;;5.43;4.18;;;11.20;99.90;;;;;;5075226;28;20024;-92
2022/08/28 06:59:57;;;;;;;6.18;4.32;;;11.30;99.90;;;;;;5075917;28;20504;-92
2022/08/28 07:02:23;;;;;;;5.80;4.15;;;11.40;99.90;;;;;;5079990;28;20021;-92
2022/08/28 07:04:51;;;;;;;5.90;3.78;;;11.50;99.90;;;;;;5081905;28;20465;-92
2022/08/28 07:07:17;;;;;;;4.47;3.88;;;11.50;99.90;;;;;;5074423;28;20020;-94
2022/08/28 07:09:43;;;;;;;5.18;4.00;;;11.60;99.90;;;;;;5075448;28;20031;-93
2022/08/28 07:12:08;;;;;;;8.57;5.03;;;11.70;99.90;;;;;;5079129;28;20036;-91
2022/08/28 07:14:36;;;;;;;4.80;4.10;;;11.80;99.90;;;;;;5091237;28;20027;-92
2022/08/28 07:17:02;;;;;;;7.55;4.13;;;11.80;99.90;;;;;;5076625;28;20049;-93
2022/08/28 07:19:28;;;;;;;8.93;4.38;;;11.90;99.90;;;;;;5072899;28;20067;-93
2022/08/28 07:21:54;;;;;;;6.43;4.15;;;12.00;99.90;;;;;;5072661;28;20055;-93
2022/08/28 07:24:20;;;;;;;5.45;4.40;;;12.10;99.90;;;;;;5072408;28;20078;-94
2022/08/28 07:26:46;;;;;;;6.60;4.40;;;12.20;99.90;;;;;;5072795;28;20052;-93
2022/08/28 07:29:13;;;;;;;6.80;4.20;;;12.30;99.90;;;;;;5072582;28;20020;-93
2022/08/28 07:31:43;;;;;;;5.30;4.40;;;12.40;99.90;;;;;;5072696;28;20036;-94
2022/08/28 07:34:11;;;;;;;5.57;4.35;;;12.60;99.90;;;;;;5072569;28;20078;-92
2022/08/28 07:36:38;;;;;;;9.98;4.50;;;12.70;99.90;;;;;;5072851;28;20020;-94
2022/08/28 07:39:05;;;;;;;6.50;4.57;;;12.90;99.90;;;;;;5069455;28;20115;-94
2022/08/28 07:41:34;;;;;;;6.03;4.32;;;13.00;99.90;;;;;;5072423;28;20055;-94
2022/08/28 07:46:59;;;;;;;5.90;4.13;;;13.20;99.90;;;;;;5072546;28;20039;-95
2022/08/28 07:49:26;;;;;;;7.88;3.75;;;13.30;99.90;;;;;;5072716;28;20028;-94
2022/08/28 07:51:53;;;;;;;8.98;3.75;;;13.50;99.90;;;;;;5076281;28;20028;-94
2022/08/28 07:54:19;;;;;;;7.70;3.85;;;13.60;99.90;;;;;;5073104;28;20613;-94
2022/08/28 07:56:46;;;;;;;5.15;3.80;;;13.70;99.90;;;;;;5073907;28;20024;-94
2022/08/28 07:59:13;;;;;;;6.80;4.00;;;13.90;99.90;;;;;;5073161;28;20481;-93
2022/08/28 08:01:41;;;;;;;6.13;4.18;;;14.00;99.90;;;;;;5071562;28;20048;-94
2022/08/28 08:04:11;;;;;;;6.22;4.03;;;14.10;99.90;;;;;;5076742;28;20090;-94
2022/08/28 08:06:38;;;;;;;6.40;4.45;;;14.20;99.90;;;;;;5075401;28;20033;-94
2022/08/28 08:12:04;;;;;;;8.88;4.07;;;14.30;99.90;;;;;;5100338;22;20052;-94
2022/08/28 08:14:30;;;;;;;5.55;3.65;;;14.40;99.90;;;;;;5093054;28;20164;-95
2022/08/28 08:17:00;;;;;;;6.35;4.03;;;14.50;99.90;;;;;;5092629;28;20034;-94
2022/08/28 08:19:26;;;;;;;5.85;3.72;;;14.60;99.90;;;;;;5099365;28;20020;-93
2022/08/28 08:21:52;;;;;;;7.07;3.60;;;14.70;99.90;;;;;;5093584;28;20024;-92
2022/08/28 08:24:24;;;;;;;7.25;4.00;;;14.80;99.90;;;;;;5097456;28;20050;-91
2022/08/28 08:26:52;;;;;;;5.78;3.80;;;14.90;99.90;;;;;;5100992;28;20060;-92
2022/08/28 08:29:18;;;;;;;8.35;3.72;;;15.00;99.90;;;;;;5090071;28;20029;-93
2022/08/28 08:31:45;;;;;;;8.13;3.40;;;15.10;99.90;;;;;;5088372;28;20027;-95
2022/08/28 08:34:11;;;;;;;6.60;3.80;;;15.20;99.90;;;;;;5086534;28;20024;-93
2022/08/28 08:36:38;;;;;;;3.97;3.10;;;15.30;99.90;;;;;;5084264;28;20456;-92
2022/08/28 08:39:06;;;;;;;6.05;2.88;;;15.40;99.90;;;;;;5085902;28;20028;-92
2022/08/28 08:41:38;;;;;;;4.75;3.42;;;15.50;99.90;;;;;;5089333;28;20026;-92
2022/08/28 08:44:25;;;;;;;7.40;3.42;;;15.60;99.90;;;;;;5096049;28;20024;-92
2022/08/28 08:47:33;;;;;;;6.78;4.22;;;15.80;99.90;;;;;;5096156;28;20598;-93
2022/08/28 08:50:11;;;;;;;7.85;4.00;;;15.90;99.90;;;;;;5092746;28;20032;-92
2022/08/28 08:53:04;;;;;;;6.30;3.25;;;16.10;99.90;;;;;;5089722;28;20085;-92
2022/08/28 08:55:35;;;;;;;6.40;3.22;;;16.20;99.90;;;;;;5093118;28;20016;-91
2022/08/28 08:58:09;;;;;;;9.38;3.35;;;16.30;99.90;;;;;;5096258;28;20096;-92
2022/08/28 09:01:02;;;;;;;6.10;3.05;;;16.50;99.90;;;;;;5091618;28;20024;-91
2022/08/28 09:03:46;;;;;;;6.28;2.92;;;16.70;99.90;;;;;;5055987;28;20079;-92
2022/08/28 09:06:25;;;;;;;6.53;2.55;;;16.80;99.90;;;;;;5042533;28;20025;-93
2022/08/28 09:09:00;;;;;;;5.53;3.10;;;17.00;99.90;;;;;;5074690;28;20024;-93
2022/08/28 09:11:53;;;;;;;4.35;2.75;;;17.20;99.90;;;;;;5073782;28;20083;-93
2022/08/28 09:14:40;;;;;;;5.75;2.55;;;17.40;99.90;;;;;;5075556;28;20089;-92
2022/08/28 09:17:09;;;;;;;5.70;2.67;;;17.60;99.90;;;;;;5075726;28;20032;-91
2022/08/28 09:19:35;;;;;;;5.10;2.40;;;17.80;99.90;;;;;;5074813;28;20036;-92
2022/08/28 09:22:01;;;;;;;6.82;2.20;;;17.90;99.90;;;;;;5075315;28;20078;-91
2022/08/28 09:24:31;;;;;;;3.88;1.77;;;18.10;99.90;;;;;;5075539;28;20103;-90
2022/08/28 09:27:03;;;;;;;3.47;2.43;;;18.30;99.90;;;;;;5075425;28;20036;-90
2022/08/28 09:29:42;;;;;;;5.78;1.67;;;18.50;99.90;;;;;;5075046;28;20113;-90
2022/08/28 09:32:29;;;;;;;4.47;1.55;;;18.80;99.90;;;;;;5075051;28;20031;-90
2022/08/28 09:35:10;;;;;;;5.00;1.80;;;19.00;99.90;;;;;;5074179;28;20536;-89
2022/08/28 09:37:36;;;;;;;2.08;1.52;;;19.20;99.90;;;;;;5073766;28;20319;-91
2022/08/28 09:43:25;;;;;;;5.57;1.40;;;19.30;99.90;;;;;;5073593;28;20025;-90
2022/08/28 09:43:27;;;;;;;8.15;1.65;;;19.60;99.90;;;;;;5074750;28;20070;-91
2022/08/28 09:46:03;;;;;;;5.90;1.42;;;19.70;99.90;;;;;;5086900;28;20055;-91
2022/08/28 09:48:35;;;;;;;1.85;1.23;;;19.90;99.90;;;;;;5081241;28;20027;-90
2022/08/28 09:51:07;;;;;;;5.53;1.30;;;20.00;99.90;;;;;;5076333;28;20066;-90
2022/08/28 09:53:53;;;;;;;3.45;1.08;;;20.20;99.90;;;;;;5076844;28;20089;-91
2022/08/28 09:56:34;;;;;;;3.22;1.42;;;20.40;99.90;;;;;;5075815;28;20032;-91
2022/08/28 09:59:15;;;;;;;3.47;1.42;;;20.60;99.90;;;;;;5076182;28;20024;-91
2022/08/28 10:01:56;;;;;;;5.55;1.23;;;20.80;99.90;;;;;;5075847;28;20025;-91
2022/08/28 10:04:38;;;;;;;2.83;1.25;;;20.80;99.90;;;;;;5076357;28;20048;-91
2022/08/28 10:07:05;;;;;;;2.85;1.10;;;21.10;99.90;;;;;;5076439;28;20039;-90
2022/08/28 10:10:05;;;;;;;1.60;0.82;;;21.30;99.90;;;;;;5075537;28;20025;-90
2022/08/28 10:12:40;;;;;;;4.55;1.63;;;21.50;99.90;;;;;;5073711;28;20036;-91
2022/08/28 10:15:24;;;;;;;4.80;0.90;;;21.50;99.60;;;;;;5074593;28;20075;-90
2022/08/28 10:18:27;;;;;;;3.40;1.20;;;21.60;98.80;;;;;;5074878;28;20547;-90
2022/08/28 10:21:04;;;;;;;5.32;1.02;;;21.90;97.70;;;;;;5079080;28;20054;-91
2022/08/28 10:23:42;;;;;;;4.45;1.10;;;22.10;96.70;;;;;;5081793;28;20448;-91
2022/08/28 10:26:25;;;;;;;3.13;0.90;;;22.40;95.70;;;;;;5077206;28;20028;-89
2022/08/28 10:29:17;;;;;;;3.83;0.93;;;22.70;94.30;;;;;;5078567;28;20024;-90
2022/08/28 10:32:16;;;;;;;2.08;0.82;;;22.80;92.70;;;;;;5074678;28;20044;-90
2022/08/28 10:34:57;;;;;;;3.10;1.13;;;23.00;91.70;;;;;;5074558;28;20409;-91
2022/08/28 10:38:01;;;;;;;1.60;0.90;;;23.00;90.60;;;;;;5074901;28;20032;-88
2022/08/28 10:40:34;;;;;;;3.08;1.20;;;23.00;90.40;;;;;;5073804;28;20111;-92
2022/08/28 10:43:15;;;;;;;6.78;2.15;;;23.10;90.10;;;;;;5074052;28;20075;-88
2022/08/28 10:45:41;;;;;;;5.65;1.23;;;23.30;89.00;;;;;;5073602;28;20024;-90
2022/08/28 10:48:26;;;;;;;3.92;1.20;;;23.50;88.10;;;;;;5073765;28;20035;-91
2022/08/28 10:51:10;;;;;;;3.78;0.80;;;23.70;85.00;;;;;;5073922;28;20024;-91
2022/08/28 10:53:45;;;;;;;1.10;0.70;;;23.80;82.20;;;;;;5073669;28;20072;-90
2022/08/28 10:56:29;;;;;;;4.40;1.30;;;23.90;80.20;;;;;;5074522;28;20113;-90
2022/08/28 10:58:58;;;;;;;4.32;1.40;;;23.90;78.40;;;;;;5073909;28;20016;-90
2022/08/28 11:01:35;;;;;;;2.45;0.77;;;23.90;78.30;;;;;;5073679;28;20543;-90
2022/08/28 11:04:06;;;;;;;3.60;0.93;;;23.80;76.80;;;;;;5073076;28;20521;-90
2022/08/28 11:06:38;;;;;;;2.00;0.52;;;23.80;75.80;;;;;;5073488;28;20074;-91
2022/08/28 11:09:25;;;;;;;1.20;0.60;;;23.80;75.40;;;;;;5085303;28;20029;-90
2022/08/28 11:11:55;;;;;;;4.47;0.90;;;23.90;74.90;;;;;;5080844;28;20072;-88
2022/08/28 11:14:34;;;;;;;2.75;1.10;;;24.00;74.70;;;;;;5078448;28;20024;-88
2022/08/28 11:17:27;;;;;;;3.20;0.80;;;24.10;74.00;;;;;;5092774;28;20037;-90
2022/08/28 11:20:08;;;;;;;1.75;0.95;;;24.30;72.90;;;;;;5094159;28;20021;-91
2022/08/28 11:22:38;;;;;;;3.67;0.80;;;24.50;72.10;;;;;;5088833;28;20029;-90
2022/08/28 11:25:24;;;;;;;2.50;0.73;;;24.60;71.50;;;;;;5076424;28;20039;-89
2022/08/28 11:28:26;;;;;;;6.80;0.80;;;24.80;71.90;;;;;;5075805;28;20044;-90
2022/08/28 11:31:00;;;;;;;1.85;0.90;;;25.00;71.20;;;;;;5067618;28;20105;-90
2022/08/28 11:33:43;;;;;;;5.40;1.10;;;25.20;71.30;;;;;;5073927;28;20151;-91
2022/08/28 11:36:32;;;;;;;1.67;0.68;;;25.40;70.80;;;;;;5073776;28;20048;-89
2022/08/28 11:39:02;;;;;;;3.33;0.90;;;25.50;70.00;;;;;;5055247;28;20039;-89
2022/08/28 11:41:38;;;;;;;3.13;0.70;;;25.60;69.90;;;;;;5056036;28;20128;-90
2022/08/28 11:44:10;;;;;;;3.53;0.70;;;25.70;69.50;;;;;;5055625;28;20032;-88
2022/08/28 11:46:39;;;;;;;2.50;0.93;;;25.60;69.00;;;;;;5056453;28;20044;-89
2022/08/28 11:49:25;;;;;;;1.90;0.88;;;25.50;68.90;;;;;;5056313;28;20036;-87
2022/08/28 11:52:18;;;;;;;4.65;1.00;;;25.40;69.10;;;;;;5056979;28;20036;-89
2022/08/28 11:55:07;;;;;;;2.08;1.00;;;25.50;69.00;;;;;;5057506;28;20036;-88
2022/08/28 11:57:59;;;;;;;2.35;0.80;;;25.30;68.50;;;;;;5056784;28;20393;-88
2022/08/28 12:00:57;;;;;;;2.13;0.70;;;25.10;68.80;;;;;;5055751;28;20028;-88
2022/08/28 12:03:35;;;;;;;3.13;1.17;;;24.80;69.20;;;;;;5072718;28;20561;-89
2022/08/28 12:06:02;;;;;;;2.08;0.90;;;24.60;69.60;;;;;;5055984;28;20040;-87
2022/08/28 12:08:56;;;;;;;5.20;0.85;;;24.50;70.00;;;;;;5055685;28;20025;-88
2022/08/28 12:11:40;;;;;;;4.68;1.13;;;24.60;70.20;;;;;;5062894;28;20103;-88
2022/08/28 12:14:09;;;;;;;3.78;1.58;;;24.70;69.50;;;;;;5054360;28;20135;-88
2022/08/28 12:16:56;;;;;;;4.45;1.00;;;24.70;68.80;;;;;;5067205;28;20029;-88
2022/08/28 12:19:32;;;;;;;2.22;1.15;;;24.80;68.90;;;;;;5072030;28;20029;-89
2022/08/28 12:22:13;;;;;;;2.95;0.95;;;25.10;68.70;;;;;;5070519;28;20510;-90
2022/08/28 12:24:53;;;;;;;3.28;0.80;;;25.40;68.20;;;;;;5070724;28;20032;-89
2022/08/28 12:27:20;;;;;;;1.02;0.80;;;25.70;67.60;;;;;;5073012;28;20033;-89
2022/08/28 12:29:55;;;;;;;3.47;1.02;;;25.90;66.60;;;;;;5077852;28;20123;-89
2022/08/28 12:32:47;;;;;;;2.90;0.90;;;26.00;66.00;;;;;;5085578;28;20508;-89
2022/08/28 12:35:22;;;;;;;1.75;0.70;;;25.90;65.20;;;;;;5083065;28;20039;-90
2022/08/28 12:37:52;;;;;;;1.42;0.90;;;25.70;65.50;;;;;;5083904;28;20077;-89
2022/08/28 12:40:25;;;;;;;2.42;1.02;;;25.80;65.30;;;;;;5074712;28;20033;-89
2022/08/28 12:43:03;;;;;;;6.45;1.08;;;25.80;64.80;;;;;;5069774;28;20028;-90
2022/08/28 12:45:41;;;;;;;2.60;0.93;;;26.00;64.50;;;;;;5072636;28;20043;-89
2022/08/28 12:48:13;;;;;;;6.05;1.00;;;26.30;64.00;;;;;;5072643;28;20066;-89
2022/08/28 12:50:39;;;;;;;3.78;0.82;;;26.50;63.00;;;;;;5078836;28;20044;-91
2022/08/28 12:53:11;;;;;;;2.38;0.75;;;26.60;62.80;;;;;;5075365;28;20041;-90
2022/08/28 12:55:38;;;;;;;2.55;0.80;;;27.00;62.80;;;;;;5075032;28;20027;-90
2022/08/28 12:58:27;;;;;;;3.60;0.90;;;27.50;62.80;;;;;;5075781;28;20039;-90
2022/08/28 13:00:57;;;;;;;3.10;0.90;;;27.80;61.00;;;;;;5075304;28;20042;-89
2022/08/28 13:03:23;;;;;;;1.97;0.83;;;27.80;60.70;;;;;;5075372;28;20029;-90
2022/08/28 13:05:57;;;;;;;3.08;0.93;;;27.90;60.40;;;;;;5075229;28;20027;-91
2022/08/28 13:08:23;;;;;;;2.45;1.00;;;27.90;60.00;;;;;;5075275;28;20040;-91
2022/08/28 13:10:50;;;;;;;1.77;0.88;;;27.80;59.80;;;;;;5075250;28;20578;-90
2022/08/28 13:13:42;;;;;;;1.88;0.80;;;27.40;59.60;;;;;;5074807;28;20041;-90
2022/08/28 13:16:09;;;;;;;2.50;0.93;;;27.20;59.80;;;;;;5075998;28;20036;-90
2022/08/28 13:18:38;;;;;;;2.58;1.10;;;27.00;60.30;;;;;;5075138;28;20470;-89
2022/08/28 13:21:16;;;;;;;2.10;1.05;;;27.10;60.30;;;;;;5075313;28;20465;-89
2022/08/28 13:23:43;;;;;;;4.20;1.52;;;27.20;59.80;;;;;;5075938;28;20025;-91